• Join FlightAware (Why Join?)
  • Login
  • US Flag 
05:34AM EST


 

Airport Tracker/Info


-or-


 

Live Flight TrackerFlight Track Log ✈ N762NC ✈ 10-Oct-2013 ✈ KPIT - KATL

Flight Track Log - Related Links

Times and Time Zones

All times are in EDT time to prevent confusion due to time zone crossing. See the N762NC flight status page for this flight to view local times or setup timezone preferences in your user account.

Time Position Orientation Groundspeed Altitude Reporting Facility
EDT Latitude Longitude Course Direction KTS MPH feet Rate Location/Type
04:04PM 40.4283 -80.1511 215° Southwest 237 273 4,100  Level Cleveland Center
04:05PM 40.3567 -80.1369 171° South 240 276 5,800 1,740 Climbing Cleveland Center
04:06PM 40.1068 -80.4922 215° Southwest  Level Estimated
04:06PM 40.2789 -80.1189 170° South 276 318 7,800  Level Cleveland Center
04:07PM 40.0106 -80.5567 212° Southwest  Level Estimated
04:07PM 40.2014 -80.1006 170° South 282 325 10,200  Level Cleveland Center
04:08PM 39.9143 -80.6209 218° Southwest  Level Estimated
04:08PM 40.1175 -80.0822 171° South 303 349 11,900  Level Cleveland Center
04:09PM 39.8202 -80.6835 215° Southwest  Level Estimated
04:09PM 40.0300 -80.0647 171° South 317 365 14,100  Level Cleveland Center
04:10PM 39.8847 -80.1483 204° Southwest 354 407 15,700 840 Climbing Indianapolis Center
04:11PM 39.8506 -80.1736 210° Southwest 380 437 15,900 1,560 Climbing Cleveland Center
04:12PM 39.7378 -80.2694 213° Southwest 401 461 18,100 1,740 Climbing Cleveland Center
04:13PM 39.6472 -80.3547 216° Southwest 403 464 19,500 1,260 Climbing Cleveland Center
04:14PM 39.6072 -80.3972 219° Southwest 404 465 20,100 1,200 Climbing Indianapolis Center
04:15PM 39.5128 -80.4883 217° Southwest 418 481 21,400 1,500 Climbing Indianapolis Center
04:16PM 39.4047 -80.6053 220° Southwest 423 487 23,200 1,380 Climbing Indianapolis Center
04:17PM 39.3158 -80.7069 222° Southwest 424 488 24,300 960 Climbing Indianapolis Center
04:18PM 39.2258 -80.8117 222° Southwest 432 497 25,300 960 Climbing Indianapolis Center
04:19PM 39.1353 -80.9217 223° Southwest 442 509 26,400 900 Climbing Indianapolis Center
04:20PM 39.0450 -81.0322 224° Southwest 446 513 27,200 720 Climbing Indianapolis Center
04:21PM 38.9497 -81.1419 222° Southwest 456 525 27,900 360 Climbing Indianapolis Center
04:22PM 38.8492 -81.2447 219° Southwest 459 528 28,000  Climbing Indianapolis Center
04:23PM 38.6706 -81.4008 214° Southwest 462 532 28,000  Level Cleveland Center
04:24PM 38.6100 -81.4533 214° Southwest 465 535 28,000  Level Indianapolis Center
04:25PM 38.5031 -81.5519 216° Southwest 464 534 28,000 480 Level Indianapolis Center
04:26PM 38.3989 -81.6539 217° Southwest 467 537 29,000 1,200 Climbing Indianapolis Center
04:27PM 38.3006 -81.7581 220° Southwest 460 529 30,600 1,200 Climbing Indianapolis Center
04:28PM 38.1911 -81.8361 209° Southwest 451 519 31,600 660 Climbing Indianapolis Center
04:29PM 38.0711 -81.8892 199° South 454 522 32,000 180 Climbing Indianapolis Center
04:30PM 37.9494 -81.9389 198° South 458 527 32,000 240 Level Indianapolis Center
04:31PM 37.8103 -81.9992 199° South 455 524 32,500 480 Climbing Indianapolis Center
04:32PM 37.6908 -82.0544 200° South 455 524 33,000 600 Climbing Indianapolis Center
04:33PM 37.5717 -82.1050 199° South 452 520 33,800 480 Climbing Indianapolis Center
04:34PM 37.4483 -82.1472 195° South 453 521 34,000 60 Climbing Indianapolis Center
04:35PM 37.3275 -82.2000 199° South 457 526 34,000  Level Indianapolis Center
04:36PM 37.1853 -82.2600 199° South 457 526 34,000  Level Indianapolis Center
04:38PM 37.0583 -82.3054 196° South  Level FlightAware Approximate
04:38PM 36.9414 -82.3664 196° South 458 527 34,000  Level Atlanta Center
04:39PM 36.8181 -82.4169 198° South 462 532 34,000  Level Indianapolis Center
04:40PM 36.6925 -82.4678 198° South 467 537 34,000  Level Indianapolis Center
04:41PM 36.5536 -82.5139 195° South 476 548 34,000  Level Atlanta Center
04:43PM 36.4436 -82.5528 200° South  Level FlightAware Approximate
04:44PM 36.2806 -82.5992 200° South 479 551 34,000  Level Indianapolis Center
04:44PM 36.1628 -82.6372 195° South 476 548 34,000  Level Atlanta Center
04:45PM 36.0319 -82.6806 195° South 476 548 34,000  Level Atlanta Center
04:46PM 35.9072 -82.7208 195° South 476 548 34,000  Level Atlanta Center
04:47PM 35.7783 -82.7639 195° South 476 548 34,000  Level Atlanta Center
04:48PM 35.6517 -82.8144 198° South 471 542 34,000 -180 Level Atlanta Center
04:49PM 35.5250 -82.8675 199° South 481 554 33,700 -600 Descending Atlanta Center
04:50PM 35.4067 -82.9406 207° Southwest 481 554 32,900 -840 Descending Atlanta Center
04:51PM 35.2906 -83.0286 212° Southwest 488 562 32,100 -720 Descending Atlanta Center
04:52PM 35.1808 -83.1214 215° Southwest 493 567 31,500 -660 Descending Atlanta Center
04:53PM 35.0686 -83.2167 215° Southwest 493 567 30,800 -780 Descending Atlanta Center
04:54PM 34.9669 -83.3011 214° Southwest 488 562 30,000 -1,200 Descending Atlanta Center
04:55PM 34.8589 -83.3883 214° Southwest 488 562 28,500 -1,500 Descending Atlanta Center
04:56PM 34.7467 -83.4775 213° Southwest 488 562 27,000 -1,440 Descending Atlanta Center
04:57PM 34.6261 -83.5667 211° Southwest 477 549 25,700 -1,380 Descending Atlanta Center
04:58PM 34.5117 -83.6381 207° Southwest 464 534 24,300 -2,460 Descending Atlanta Center
04:59PM 34.4011 -83.7064 207° Southwest 452 520 20,800 -3,540 Descending Atlanta Center
05:00PM 34.2969 -83.7747 208° Southwest 436 502 17,300 -3,600 Descending Atlanta Center
05:01PM 34.2072 -83.8328 208° Southwest 420 483 13,700 -2,160 Descending Atlanta Center
05:02PM 34.1197 -83.8908 209° Southwest 390 449 13,000 -480 Descending Atlanta Center
05:03PM 34.0667 -83.9333 214° Southwest 310 357 12,900 -960 Descending Atlanta TRACON
05:04PM 34.0000 -84.0000 220° Southwest 277 319 11,400 -1,380 Descending Atlanta TRACON
05:05PM 33.9500 -84.0667 228° Southwest 297 342 10,200 -1,200 Descending Atlanta TRACON
05:06PM 33.8667 -84.0667 180° South 288 331 9,000 -1,620 Descending Atlanta TRACON
05:07PM 33.7833 -84.0667 180° South 278 320 7,000 -1,740 Descending Atlanta TRACON
05:08PM 33.7167 -84.0667 180° South 246 283 5,600 -1,020 Descending Atlanta TRACON
05:09PM 33.6667 -84.1167 220° Southwest 234 269 5,000 -420 Descending Atlanta TRACON
05:10PM 33.6500 -84.1833 253° West 191 220 4,800 -660 Descending Atlanta TRACON
05:11PM 33.6500 -84.2500 270° West 191 220 3,700 -1,080 Descending Atlanta TRACON
05:12PM 33.6500 -84.3000 270° West 178 205 2,700 -960 Descending Atlanta TRACON
05:13PM 33.6500 -84.3667 270° West 154 177 1,800 -900 Descending Atlanta TRACON